< < Back
Terminal Aerodrome Forecast


Current Version              Previous Versions:   1  2  3  4  5  6  7  8  9  

Terminal Aerodrome Forecast

457
FTUS44 KMRX 270528
TAFTYS
TAF
KTYS 270528Z 2706/2806 36009KT 6SM -SHRA BR SCT015 OVC035
     FM270730 35012KT P6SM BKN015 OVC025
     FM271300 36008KT P6SM BKN025
     FM271600 33008KT P6SM BKN045 BKN100
     FM272000 32010KT P6SM VCSH OVC035
     FM280300 33009KT P6SM OVC035=

Latest METAR

881
SAUS80 KWBC 271500 CCA
MTRTYS
METAR KTYS 271453Z 35013G20KT 10SM OVC028 06/00 A2991 RMK AO2 SLP128
60000 T00610000 53009


USA.gov is the U.S. government's official web portal to all federal, state and local government web resources and services.